.
WxDataArchive / Data Records for 2015-04-16
2015-04-15 April 2015 2015-04-17

Data Records for Thursday, 16 April 2015

Time	Temp	Chill	HIndex	Humid	Dewpt	 Wind 	HiWind	WindDir	Rain 	Barom
-----	----	-----	------	-----	-----	------	------	-------	-----	-----
00:00	50.2	50.2	50.2	34	22.9	3	6	90	0.00	30.222 
00:05	50.2	50.2	50.2	34	22.9	4	9	90	0.00	30.222 
00:10	50.2	50.2	50.2	35	23.6	3	11	90	0.00	30.222 
00:15	50.1	50.1	50.1	35	23.5	3	9	90	0.00	30.220 
00:20	50.1	50.1	50.1	35	23.5	5	11	112	0.00	30.220 
00:25	50.1	50.1	50.1	35	23.5	3	9	90	0.00	30.220 
00:30	49.9	49.9	49.9	35	23.3	3	10	90	0.00	30.223 
00:35	49.9	49.9	49.9	35	23.3	3	5	90	0.00	30.223 
00:40	49.9	48.8	49.9	35	23.3	4	10	90	0.00	30.223 
00:45	49.8	48.6	49.8	36	23.9	4	9	90	0.00	30.211 
00:50	49.6	48.4	49.6	39	25.7	4	10	90	0.00	30.211 
00:55	49.5	48.3	49.5	40	26.2	4	10	90	0.00	30.211 
01:00	49.2	49.2	49.2	42	27.1	3	7	90	0.00	30.210 
01:05	48.9	47.6	48.9	43	27.4	4	8	90	0.00	30.210 
01:10	48.8	47.5	48.8	42	26.7	4	9	90	0.00	30.210 
01:15	48.8	47.5	48.8	41	26.2	4	9	90	0.00	30.204 
01:20	48.8	47.5	48.8	39	25.0	4	10	90	0.00	30.204 
01:25	48.8	48.8	48.8	41	26.2	3	7	90	0.00	30.204 
01:30	48.8	48.8	48.8	44	27.9	3	7	90	0.00	30.202 
01:35	48.5	47.1	48.5	46	28.7	4	6	90	0.00	30.202 
01:40	48.3	48.3	48.3	48	29.5	3	9	90	0.00	30.202 
01:45	48.0	48.0	48.0	50	30.3	3	6	90	0.00	30.195 
01:50	47.9	47.9	47.9	50	30.2	3	11	90	0.00	30.195 
01:55	47.7	47.7	47.7	51	30.5	2	4	90	0.00	30.195 
02:00	47.7	47.7	47.7	50	30.0	3	7	90	0.00	30.189 
02:05	47.9	47.9	47.9	50	30.2	2	7	90	0.00	30.189 
02:10	47.9	47.9	47.9	50	30.2	2	7	90	0.00	30.189 
02:15	48.0	48.0	48.0	50	30.3	2	7	90	0.00	30.184 
02:20	48.0	48.0	48.0	51	30.7	1	5	90	0.00	30.184 
02:25	48.0	48.0	48.0	51	30.7	2	5	90	0.00	30.184 
02:30	48.0	48.0	48.0	50	30.3	2	4	90	0.00	30.179 
02:35	48.2	48.2	48.2	50	30.4	2	6	90	0.00	30.179 
02:40	48.2	48.2	48.2	50	30.4	1	4	90	0.00	30.179 
02:45	48.2	48.2	48.2	51	30.9	2	5	90	0.00	30.171 
02:50	48.0	48.0	48.0	50	30.3	2	5	112	0.00	30.171 
02:55	48.0	48.0	48.0	50	30.3	2	7	90	0.00	30.171 
03:00	48.0	48.0	48.0	51	30.7	3	6	90	0.00	30.159 
03:05	47.9	47.9	47.9	51	30.7	2	7	90	0.00	30.159 
03:10	47.9	47.9	47.9	52	31.1	1	4	90	0.00	30.159 
03:15	47.7	47.7	47.7	52	30.9	2	5	90	0.00	30.154 
03:20	47.7	47.7	47.7	52	30.9	2	5	68	0.00	30.154 
03:25	47.6	47.6	47.6	52	30.9	2	5	90	0.00	30.154 
03:30	47.6	47.6	47.6	52	30.9	2	3	90	0.00	30.151 
03:35	47.6	47.6	47.6	52	30.9	2	4	112	0.00	30.151 
03:40	47.6	47.6	47.6	53	31.3	2	5	112	0.00	30.151 
03:45	47.7	47.7	47.7	53	31.4	2	6	90	0.00	30.139 
03:50	47.7	47.7	47.7	53	31.4	2	4	90	0.00	30.139 
03:55	47.7	47.7	47.7	54	31.9	1	4	90	0.00	30.139 
04:00	47.7	47.7	47.7	54	31.9	2	6	90	0.00	30.131 
04:05	47.6	47.6	47.6	54	31.8	1	3	90	0.00	30.131 
04:10	47.6	47.6	47.6	55	32.2	2	5	90	0.00	30.131 
04:15	47.6	47.6	47.6	55	32.2	2	7	90	0.00	30.125 
04:20	47.7	47.7	47.7	54	31.9	3	6	90	0.00	30.125 
04:25	47.7	47.7	47.7	54	31.9	2	6	90	0.00	30.125 
04:30	47.7	47.7	47.7	54	31.9	1	4	90	0.00	30.120 
04:35	47.7	47.7	47.7	54	31.9	1	6	90	0.00	30.120 
04:40	47.7	47.7	47.7	54	31.9	1	5	90	0.00	30.120 
04:45	47.7	47.7	47.7	54	31.9	2	6	90	0.00	30.122 
04:50	47.7	47.7	47.7	54	31.9	1	5	90	0.00	30.122 
04:55	47.7	47.7	47.7	54	31.9	2	5	90	0.00	30.122 
05:00	47.7	47.7	47.7	54	31.9	2	6	90	0.00	30.113 
05:05	47.7	47.7	47.7	55	32.3	2	5	112	0.00	30.113 
05:10	47.6	47.6	47.6	55	32.2	1	4	112	0.00	30.113 
05:15	47.4	47.4	47.4	55	32.1	1	3	112	0.00	30.111 
05:20	47.4	47.4	47.4	56	32.5	1	2	112	0.00	30.111 
05:25	47.3	47.3	47.3	57	32.8	1	4	112	0.00	30.111 
05:30	47.3	47.3	47.3	57	32.8	0	1	112	0.00	30.108 
05:35	47.3	47.3	47.3	57	32.8	1	3	112	0.00	30.108 
05:40	47.3	47.3	47.3	57	32.8	2	4	112	0.00	30.108 
05:45	47.3	47.3	47.3	57	32.8	1	5	112	0.00	30.100 
05:50	47.3	47.3	47.3	58	33.3	1	3	112	0.00	30.100 
05:55	47.3	47.3	47.3	58	33.3	2	4	112	0.00	30.100 
06:00	47.3	47.3	47.3	58	33.3	1	4	68	0.00	30.094 
06:05	47.3	47.3	47.3	58	33.3	1	5	68	0.00	30.094 
06:10	47.3	47.3	47.3	58	33.3	0	3	90	0.00	30.094 
06:15	47.3	47.3	47.3	58	33.3	1	3	90	0.00	30.097 
06:20	47.4	47.4	47.4	58	33.4	1	3	90	0.00	30.097 
06:25	47.4	47.4	47.4	58	33.4	1	3	90	0.00	30.097 
06:30	47.4	47.4	47.4	57	32.9	1	3	90	0.00	30.105 
06:35	47.6	47.6	47.6	57	33.1	1	3	90	0.00	30.105 
06:40	47.6	47.6	47.6	58	33.6	0	2	90	0.00	30.105 
06:45	47.6	47.6	47.6	58	33.6	1	3	90	0.00	30.101 
06:50	47.6	47.6	47.6	58	33.6	1	3	90	0.00	30.101 
06:55	47.6	47.6	47.6	58	33.6	0	2	90	0.00	30.101 
07:00	47.6	47.6	47.6	59	34.0	1	3	90	0.00	30.105 
07:05	47.6	47.6	47.6	59	34.0	1	3	90	0.00	30.105 
07:10	47.7	47.7	47.7	59	34.1	1	4	90	0.00	30.105 
07:15	47.7	47.7	47.7	60	34.5	2	4	90	0.00	30.108 
07:20	47.6	47.6	47.6	60	34.4	1	3	90	0.00	30.108 
07:25	47.6	47.6	47.6	61	34.8	1	4	90	0.00	30.108 
07:30	47.6	47.6	47.6	61	34.8	2	5	90	0.00	30.110 
07:35	47.6	47.6	47.6	61	34.8	2	4	90	0.00	30.110 
07:40	47.6	47.6	47.6	62	35.2	2	4	90	0.00	30.110 
07:45	47.6	47.6	47.6	62	35.2	1	4	90	0.00	30.110 
07:50	47.6	47.6	47.6	62	35.2	1	4	90	0.00	30.110 
07:55	47.6	47.6	47.6	63	35.6	1	3	90	0.00	30.110 
08:00	47.7	47.7	47.7	63	35.7	1	5	90	0.00	30.112 
08:05	47.9	47.9	47.9	63	35.9	2	5	90	0.00	30.112 
08:10	48.0	48.0	48.0	63	36.0	2	6	90	0.00	30.112 
08:15	48.2	48.2	48.2	62	35.8	2	5	68	0.00	30.114 
08:20	48.5	48.5	48.5	62	36.1	2	5	68	0.00	30.114 
08:25	48.8	48.8	48.8	62	36.4	1	6	112	0.00	30.114 
08:30	49.1	49.1	49.1	62	36.6	2	4	112	0.00	30.115 
08:35	49.5	49.5	49.5	60	36.2	2	5	112	0.00	30.115 
08:40	49.8	49.8	49.8	58	35.6	3	6	90	0.00	30.115 
08:45	49.9	49.9	49.9	58	35.7	2	5	112	0.00	30.107 
08:50	50.1	50.1	50.1	57	35.5	3	6	90	0.00	30.107 
08:55	50.2	50.2	50.2	57	35.6	2	5	90	0.00	30.107 
09:00	50.4	50.4	50.4	56	35.3	3	8	90	0.00	30.096 
09:05	50.8	50.8	50.8	56	35.7	3	6	90	0.00	30.096 
09:10	51.3	51.3	51.3	56	36.1	2	6	90	0.00	30.096 
09:15	51.6	51.6	51.6	57	36.9	2	6	112	0.00	30.097 
09:20	51.9	51.9	51.9	56	36.7	2	4	112	0.00	30.097 
09:25	52.2	52.2	52.2	56	37.0	2	5	90	0.00	30.097 
09:30	52.6	52.6	52.6	55	36.9	2	5	90	0.00	30.095 
09:35	52.9	52.9	52.9	56	37.6	2	5	90	0.00	30.095 
09:40	53.1	53.1	53.1	55	37.4	2	5	90	0.00	30.095 
09:45	53.3	53.3	53.3	56	38.0	2	4	90	0.00	30.092 
09:50	53.6	53.6	53.6	57	38.7	2	6	90	0.00	30.092 
09:55	53.8	53.8	53.8	56	38.5	1	4	90	0.00	30.092 
10:00	53.9	53.9	53.9	57	39.0	2	4	90	0.00	30.095 
10:05	54.1	54.1	54.1	57	39.2	0	2	90	0.00	30.095 
10:10	54.4	54.4	54.4	57	39.5	1	3	90	0.00	30.095 
10:15	54.7	54.7	54.7	56	39.3	1	5	90	0.00	30.096 
10:20	54.8	54.8	54.8	57	39.9	1	3	90	0.00	30.096 
10:25	55.1	55.1	55.1	57	40.1	1	3	90	0.00	30.096 
10:30	55.1	55.1	55.1	57	40.1	2	5	90	0.00	30.089 
10:35	55.3	55.3	55.3	58	40.8	2	5	90	0.00	30.089 
10:40	55.7	55.7	55.7	59	41.6	1	4	90	0.00	30.089 
10:45	56.2	56.2	56.2	58	41.6	1	5	90	0.00	30.083 
10:50	56.5	56.5	56.5	58	41.9	0	2	90	0.00	30.083 
10:55	56.7	56.7	56.7	59	42.5	1	3	90	0.00	30.083 
11:00	57.0	57.0	57.0	58	42.4	1	3	90	0.00	30.084 
11:05	57.5	57.5	57.5	58	42.8	0	4	90	0.00	30.084 
11:10	58.0	58.0	58.0	58	43.3	0	2	90	0.00	30.084 
11:15	58.4	58.4	58.4	57	43.2	2	5	112	0.00	30.084 
11:20	58.9	58.9	58.9	58	44.1	0	3	112	0.00	30.084 
11:25	59.5	59.5	59.5	57	44.3	2	4	112	0.00	30.084 
11:30	60.4	60.4	60.4	57	45.1	1	3	112	0.00	30.076 
11:35	61.3	61.3	61.3	55	45.0	1	6	90	0.00	30.076 
11:40	61.5	61.5	61.5	57	46.1	1	4	90	0.00	30.076 
11:45	61.5	61.5	61.5	56	45.7	1	5	112	0.00	30.073 
11:50	61.3	61.3	61.3	59	46.8	1	4	112	0.00	30.073 
11:55	61.2	61.2	61.2	59	46.8	1	4	112	0.00	30.073 
12:00	61.0	61.0	61.0	62	47.9	1	4	112	0.00	30.068 
12:05	61.3	61.3	61.3	65	49.4	1	4	90	0.00	30.068 
12:10	61.3	61.3	61.3	67	50.2	2	4	68	0.00	30.068 
12:15	60.9	60.9	60.9	68	50.3	1	4	90	0.00	30.072 
12:20	60.5	60.5	60.5	69	50.3	0	1	90	0.00	30.072 
12:25	59.9	59.9	59.9	70	50.1	0	1	90	0.00	30.072 
12:30	59.8	59.8	59.8	71	50.4	0	1	90	0.00	30.072 
12:35	59.6	59.6	59.6	72	50.6	0	1	90	0.00	30.072 
12:40	59.5	59.5	59.5	74	51.2	0	4	90	0.00	30.072 
12:45	59.5	59.5	59.5	74	51.2	0	3	90	0.00	30.075 
12:50	59.3	59.3	59.3	73	50.6	1	4	90	0.00	30.075 
12:55	59.2	59.2	59.2	75	51.3	0	4	90	0.00	30.075 
13:00	58.7	58.7	58.7	76	51.2	1	3	90	0.00	30.075 
13:05	58.3	58.3	58.3	80	52.2	1	4	90	0.00	30.075 
13:10	58.0	58.0	58.0	82	52.5	1	3	112	0.00	30.075 
13:15	57.5	57.5	57.5	84	52.7	0	3	112	0.00	30.078 
13:20	57.2	57.2	57.2	85	52.7	0	1	112	0.00	30.078 
13:25	56.9	56.9	56.9	86	52.8	0	1	112	0.00	30.078 
13:30	56.7	56.7	56.7	87	52.9	0	1	112	0.00	30.074 
13:35	56.6	56.6	56.6	88	53.1	0	1	112	0.00	30.074 
13:40	56.5	56.5	56.5	88	53.0	0	1	112	0.00	30.074 
13:45	56.5	56.5	56.5	89	53.3	0	0	---	0.00	30.069 
13:50	56.5	56.5	56.5	89	53.3	0	1	112	0.00	30.069 
13:55	56.6	56.6	56.6	90	53.7	0	1	112	0.01	30.069 
14:00	56.6	56.6	56.6	90	53.7	0	0	---	0.00	30.064 
14:05	56.6	56.6	56.6	90	53.7	0	0	---	0.00	30.064 
14:10	56.6	56.6	56.6	91	54.0	0	0	---	0.00	30.064 
14:15	56.7	56.7	56.7	91	54.1	0	0	---	0.00	30.063 
14:20	56.7	56.7	56.7	91	54.1	0	1	112	0.00	30.063 
14:25	56.7	56.7	56.7	91	54.1	0	1	112	0.00	30.063 
14:30	56.6	56.6	56.6	91	54.0	0	1	112	0.00	30.061 
14:35	56.6	56.6	56.6	91	54.0	0	2	112	0.00	30.061 
14:40	56.7	56.7	56.7	92	54.4	0	1	112	0.00	30.061 
14:45	57.0	57.0	57.0	92	54.7	0	1	112	0.00	30.052 
14:50	57.2	57.2	57.2	92	54.9	0	0	---	0.00	30.052 
14:55	57.3	57.3	57.3	92	55.0	0	1	112	0.00	30.052 
15:00	57.5	57.5	57.5	92	55.2	0	0	---	0.00	30.049 
15:05	57.5	57.5	57.5	92	55.2	0	1	112	0.00	30.049 
15:10	57.5	57.5	57.5	92	55.2	0	0	---	0.00	30.049 
15:15	57.5	57.5	57.5	92	55.2	0	0	---	0.00	30.047 
15:20	57.6	57.6	57.6	92	55.3	0	1	112	0.00	30.047 
15:25	57.8	57.8	57.8	92	55.5	0	1	112	0.00	30.047 
15:30	58.0	58.0	58.0	92	55.7	0	1	112	0.00	30.041 
15:35	58.1	58.1	58.1	92	55.8	0	0	---	0.00	30.041 
15:40	58.4	58.4	58.4	92	56.1	0	1	112	0.00	30.041 
15:45	58.7	58.7	58.7	92	56.4	0	1	112	0.00	30.032 
15:50	59.2	59.2	59.2	92	56.9	0	1	112	0.00	30.032 
15:55	59.5	59.5	59.5	92	57.2	0	1	112	0.00	30.032 
16:00	59.5	59.5	59.5	91	56.9	0	1	112	0.00	30.027 
16:05	59.5	59.5	59.5	91	56.9	0	1	112	0.00	30.027 
16:10	59.5	59.5	59.5	90	56.6	0	1	112	0.00	30.027 
16:15	59.8	59.8	59.8	89	56.5	0	1	112	0.00	30.027 
16:20	59.8	59.8	59.8	88	56.2	0	3	112	0.00	30.027 
16:25	59.9	59.9	59.9	88	56.3	0	2	112	0.00	30.027 
16:30	60.1	60.1	60.1	87	56.2	0	1	112	0.00	30.018 
16:35	60.2	60.2	60.2	87	56.3	0	1	112	0.00	30.018 
16:40	60.4	60.4	60.4	86	56.2	0	1	112	0.00	30.018 
16:45	60.5	60.5	60.5	86	56.3	0	1	112	0.00	30.017 
16:50	60.9	60.9	60.9	86	56.7	0	0	---	0.00	30.017 
16:55	61.2	61.2	61.2	85	56.6	0	2	112	0.00	30.017 
17:00	61.2	61.2	61.2	84	56.3	0	2	112	0.00	30.022 
17:05	61.2	61.2	61.2	83	56.0	0	2	202	0.00	30.022 
17:10	61.2	61.2	61.2	83	56.0	0	1	202	0.00	30.022 
17:15	61.5	61.5	61.5	83	56.3	0	1	202	0.00	30.025 
17:20	61.6	61.6	61.6	82	56.0	0	1	202	0.00	30.025 
17:25	61.8	61.8	61.8	82	56.2	0	0	---	0.00	30.025 
17:30	62.1	62.1	62.1	81	56.2	0	2	202	0.00	30.023 
17:35	62.3	62.3	62.3	80	56.0	0	2	202	0.00	30.023 
17:40	62.3	62.3	62.3	80	56.0	0	1	202	0.00	30.023 
17:45	62.3	62.3	62.3	79	55.7	0	2	202	0.00	30.024 
17:50	62.4	62.4	62.4	79	55.8	0	1	202	0.00	30.024 
17:55	62.4	62.4	62.4	79	55.8	0	1	202	0.00	30.024 
18:00	62.6	62.6	62.6	78	55.6	0	1	202	0.00	30.022 
18:05	62.6	62.6	62.6	78	55.6	0	2	202	0.00	30.022 
18:10	62.6	62.6	62.6	78	55.6	0	2	202	0.00	30.022 
18:15	62.6	62.6	62.6	78	55.6	0	2	202	0.00	30.019 
18:20	62.4	62.4	62.4	78	55.4	0	1	202	0.00	30.019 
18:25	62.4	62.4	62.4	78	55.4	0	2	202	0.00	30.019 
18:30	62.4	62.4	62.4	78	55.4	0	1	202	0.00	30.024 
18:35	62.4	62.4	62.4	79	55.8	0	0	---	0.00	30.024 
18:40	62.4	62.4	62.4	79	55.8	0	1	202	0.00	30.024 
18:45	62.4	62.4	62.4	78	55.4	0	1	202	0.00	30.024 
18:50	62.3	62.3	62.3	78	55.3	0	2	202	0.00	30.024 
18:55	62.3	62.3	62.3	78	55.3	0	1	202	0.00	30.024 
19:00	62.1	62.1	62.1	78	55.2	0	1	202	0.00	30.027 
19:05	62.1	62.1	62.1	78	55.2	0	0	---	0.00	30.027 
19:10	62.1	62.1	62.1	78	55.2	0	0	---	0.00	30.027 
19:15	62.0	62.0	62.0	79	55.4	0	0	---	0.00	30.022 
19:20	62.0	62.0	62.0	79	55.4	0	0	---	0.00	30.022 
19:25	62.0	62.0	62.0	80	55.8	0	0	---	0.00	30.022 
19:30	62.0	62.0	62.0	81	56.1	0	2	202	0.00	30.024 
19:35	61.8	61.8	61.8	82	56.2	0	0	---	0.00	30.024 
19:40	61.8	61.8	61.8	82	56.2	0	1	202	0.00	30.024 
19:45	61.6	61.6	61.6	83	56.4	0	0	---	0.00	30.027 
19:50	61.5	61.5	61.5	83	56.3	0	0	---	0.00	30.027 
19:55	61.5	61.5	61.5	84	56.6	0	0	---	0.00	30.027 
20:00	61.3	61.3	61.3	84	56.4	0	0	---	0.00	30.029 
20:05	61.3	61.3	61.3	84	56.4	0	1	202	0.00	30.029 
20:10	61.2	61.2	61.2	84	56.3	0	0	---	0.00	30.029 
20:15	61.2	61.2	61.2	84	56.3	0	0	---	0.00	30.028 
20:20	61.0	61.0	61.0	85	56.5	0	0	---	0.00	30.028 
20:25	61.0	61.0	61.0	85	56.5	0	0	---	0.00	30.028 
20:30	60.9	60.9	60.9	85	56.4	0	1	202	0.00	30.031 
20:35	60.9	60.9	60.9	85	56.4	0	0	---	0.00	30.031 
20:40	60.7	60.7	60.7	86	56.5	0	0	---	0.00	30.031 
20:45	60.7	60.7	60.7	86	56.5	0	0	---	0.00	30.032 
20:50	60.5	60.5	60.5	86	56.3	0	0	---	0.00	30.032 
20:55	60.5	60.5	60.5	86	56.3	0	0	---	0.00	30.032 
21:00	60.5	60.5	60.5	86	56.3	0	0	---	0.00	30.032 
21:05	60.4	60.4	60.4	86	56.2	0	0	---	0.00	30.032 
21:10	60.2	60.2	60.2	86	56.0	0	0	---	0.00	30.032 
21:15	60.2	60.2	60.2	86	56.0	0	0	---	0.00	30.034 
21:20	60.1	60.1	60.1	86	55.9	0	0	---	0.00	30.034 
21:25	60.1	60.1	60.1	87	56.2	0	0	---	0.00	30.034 
21:30	59.9	59.9	59.9	87	56.0	0	0	---	0.00	30.039 
21:35	59.8	59.8	59.8	87	55.9	0	0	---	0.00	30.039 
21:40	59.8	59.8	59.8	87	55.9	0	0	---	0.00	30.039 
21:45	59.8	59.8	59.8	87	55.9	0	0	---	0.00	30.039 
21:50	59.6	59.6	59.6	88	56.0	0	0	---	0.00	30.039 
21:55	59.6	59.6	59.6	88	56.0	0	0	---	0.00	30.039 
22:00	59.5	59.5	59.5	88	55.9	0	0	---	0.00	30.039 
22:05	59.5	59.5	59.5	88	55.9	0	0	---	0.00	30.039 
22:10	59.3	59.3	59.3	88	55.7	0	0	---	0.00	30.039 
22:15	59.3	59.3	59.3	88	55.7	0	0	---	0.00	30.039 
22:20	59.2	59.2	59.2	88	55.6	0	0	---	0.00	30.039 
22:25	59.2	59.2	59.2	88	55.6	0	0	---	0.00	30.039 
22:30	59.0	59.0	59.0	88	55.4	0	1	202	0.00	30.039 
22:35	59.2	59.2	59.2	87	55.3	0	1	202	0.00	30.039 
22:40	59.2	59.2	59.2	87	55.3	0	0	---	0.00	30.039 
22:45	59.2	59.2	59.2	87	55.3	0	1	202	0.00	30.043 
22:50	59.2	59.2	59.2	86	55.0	0	0	---	0.00	30.043 
22:55	59.2	59.2	59.2	86	55.0	0	0	---	0.00	30.043 
23:00	59.2	59.2	59.2	86	55.0	0	0	---	0.00	30.042 
23:05	59.2	59.2	59.2	86	55.0	0	0	---	0.00	30.042 
23:10	59.2	59.2	59.2	86	55.0	0	0	---	0.00	30.042 
23:15	59.2	59.2	59.2	86	55.0	0	0	---	0.00	30.039 
23:20	59.0	59.0	59.0	86	54.8	0	0	---	0.00	30.039 
23:25	58.9	58.9	58.9	86	54.7	0	0	---	0.00	30.039 
23:30	58.6	58.6	58.6	86	54.4	0	0	---	0.00	30.047 
23:35	58.4	58.4	58.4	86	54.2	0	1	202	0.00	30.047 
23:40	58.3	58.3	58.3	86	54.1	0	1	202	0.00	30.047 
23:45	58.3	58.3	58.3	87	54.4	0	1	202	0.00	30.048 
23:50	58.1	58.1	58.1	87	54.2	0	1	202	0.00	30.048 
23:55	58.0	58.0	58.0	87	54.1	0	0	---	0.00	30.048 

CoCoRaHS
IN-AL-39
A2 Web Hosting
Creative Commons License
GoDaddy
search engine by freefind advanced

loaded 2018-11-22 05:24:16 • last modified 2010-11-18 10:43:29
Privacy PolicyDisclaimer
• wx.awcolley.com is powered by PmWiki v.2002016 •
• all content (unless otherwise noted) © 2018 A W Colley